createdAt,value
2018-06-13T00:02:03.978Z,27.25
2018-06-13T00:06:38.765Z,27.73
2018-06-13T00:11:13.134Z,27.42
2018-06-13T00:15:47.610Z,27.15
2018-06-13T00:20:21.925Z,26.93
2018-06-13T00:24:55.865Z,29.20
2018-06-13T00:29:30.305Z,27.70
2018-06-13T00:34:04.526Z,27.52
2018-06-13T00:38:38.981Z,31.27
2018-06-13T00:43:14.449Z,27.58
2018-06-13T00:47:48.897Z,26.27
2018-06-13T00:52:23.449Z,23.77
2018-06-13T00:56:58.334Z,23.80
2018-06-13T01:01:32.922Z,21.07
2018-06-13T01:06:08.069Z,23.87
2018-06-13T01:10:42.625Z,19.87
2018-06-13T01:15:17.095Z,20.70
2018-06-13T01:19:50.970Z,21.35
2018-06-13T01:24:25.429Z,21.37
2018-06-13T01:28:59.839Z,21.42
2018-06-13T01:33:34.306Z,22.27
2018-06-13T01:38:08.586Z,21.93
2018-06-13T01:42:43.136Z,25.90
2018-06-13T01:47:17.713Z,22.85
2018-06-13T01:51:52.153Z,21.68
2018-06-13T01:56:26.568Z,23.87
2018-06-13T02:01:00.840Z,25.97
2018-06-13T02:05:35.020Z,28.20
2018-06-13T02:10:09.389Z,24.77
2018-06-13T02:14:43.890Z,27.60
2018-06-13T02:19:18.117Z,31.05
2018-06-13T02:23:52.521Z,33.73
2018-06-13T02:28:26.758Z,36.68
2018-06-13T02:33:01.202Z,37.23
2018-06-13T02:37:35.777Z,34.45
2018-06-13T02:42:10.209Z,35.35
2018-06-13T02:46:44.809Z,39.83
2018-06-13T02:51:20.364Z,40.60
2018-06-13T02:55:54.570Z,46.35
2018-06-13T03:00:28.850Z,42.38
2018-06-13T03:05:03.470Z,44.27
2018-06-13T03:09:37.688Z,45.85
2018-06-13T03:14:12.150Z,45.48
2018-06-13T03:18:46.670Z,42.50
2018-06-13T03:23:20.985Z,51.70
2018-06-13T03:27:55.359Z,57.75
2018-06-13T03:32:29.853Z,55.88
2018-06-13T03:37:04.655Z,52.98
2018-06-13T03:41:39.085Z,49.70
2018-06-13T03:46:13.537Z,52.00
2018-06-13T03:50:48.026Z,53.92
2018-06-13T03:55:22.374Z,55.50
2018-06-13T03:59:56.946Z,54.83
2018-06-13T04:04:31.241Z,50.63
2018-06-13T04:09:07.631Z,51.00
2018-06-13T04:13:42.210Z,53.80
2018-06-13T04:18:16.610Z,45.73
2018-06-13T04:22:51.138Z,51.73
2018-06-13T04:27:25.382Z,48.50
2018-06-13T04:31:59.594Z,52.62
2018-06-13T04:36:34.542Z,51.70
2018-06-13T04:41:10.566Z,54.38
2018-06-13T04:45:44.714Z,48.02
2018-06-13T04:50:19.105Z,54.40
2018-06-13T04:54:53.530Z,49.13
2018-06-13T04:59:28.061Z,51.53
2018-06-13T05:04:02.491Z,48.58
2018-06-13T05:08:36.845Z,46.28
2018-06-13T05:13:11.356Z,47.53
2018-06-13T05:17:45.808Z,45.55
2018-06-13T05:22:20.040Z,39.58
2018-06-13T05:26:54.699Z,36.33
2018-06-13T05:31:29.210Z,33.85
2018-06-13T05:36:03.861Z,33.80
2018-06-13T05:40:38.834Z,32.48
2018-06-13T05:45:13.618Z,29.27
2018-06-13T05:49:48.008Z,27.05
2018-06-13T05:54:22.497Z,24.70
2018-06-13T05:58:56.832Z,23.92
2018-06-13T06:03:31.389Z,22.58
2018-06-13T06:08:05.904Z,21.93
2018-06-13T06:12:40.642Z,21.45
2018-06-13T06:17:15.081Z,18.05
2018-06-13T06:21:49.517Z,18.42
2018-06-13T06:26:24.103Z,17.42
2018-06-13T06:30:58.630Z,20.80
2018-06-13T06:35:33.156Z,16.87
2018-06-13T06:40:07.630Z,15.70
2018-06-13T06:44:42.035Z,15.72
2018-06-13T06:49:16.390Z,14.65
2018-06-13T06:53:50.885Z,15.50
2018-06-13T06:58:25.454Z,13.53
2018-06-13T07:03:00.782Z,13.88
2018-06-13T07:07:35.574Z,12.80
2018-06-13T07:12:10.075Z,13.28
2018-06-13T07:16:44.314Z,13.98
2018-06-13T07:21:18.744Z,13.38
2018-06-13T07:25:52.933Z,13.93
2018-06-13T07:30:27.405Z,12.70
2018-06-13T07:35:01.807Z,11.95
2018-06-13T07:39:36.214Z,12.25
2018-06-13T07:44:10.457Z,11.10
2018-06-13T07:48:44.467Z,12.10
2018-06-13T07:53:19.517Z,11.63
2018-06-13T07:57:53.729Z,11.38
2018-06-13T08:02:28.012Z,11.80
2018-06-13T08:07:02.510Z,12.43
2018-06-13T08:11:37.734Z,11.10
2018-06-13T08:16:12.118Z,9.20
2018-06-13T08:20:46.381Z,9.65
2018-06-13T08:25:21.582Z,9.68
2018-06-13T08:29:56.764Z,10.80
2018-06-13T08:34:31.018Z,11.78
2018-06-13T08:39:08.296Z,10.45
2018-06-13T08:43:43.236Z,10.98
2018-06-13T08:48:18.219Z,11.45
2018-06-13T08:52:52.538Z,11.80
2018-06-13T08:57:26.890Z,12.68
2018-06-13T09:02:01.466Z,11.45
2018-06-13T09:06:35.796Z,10.45
2018-06-13T09:11:10.224Z,11.55
2018-06-13T09:15:44.898Z,10.53
2018-06-13T09:20:19.645Z,11.33
2018-06-13T09:24:53.978Z,11.70
2018-06-13T09:29:28.286Z,10.18
2018-06-13T09:34:02.949Z,11.93
2018-06-13T09:38:37.353Z,10.80
2018-06-13T09:43:11.558Z,9.98
2018-06-13T09:47:45.856Z,11.00
2018-06-13T09:52:19.788Z,10.13
2018-06-13T09:56:54.280Z,9.13
2018-06-13T10:01:33.840Z,8.45
2018-06-13T10:06:08.350Z,8.88
2018-06-13T10:10:42.638Z,8.75
2018-06-13T10:15:17.323Z,9.08
2018-06-13T10:19:51.871Z,9.88
2018-06-13T10:24:26.066Z,8.50
2018-06-13T10:29:01.101Z,8.08
2018-06-13T10:33:35.338Z,10.15
2018-06-13T10:38:09.681Z,8.00
2018-06-13T10:42:44.729Z,8.78
2018-06-13T10:47:18.966Z,8.43
2018-06-13T10:51:53.211Z,9.20
2018-06-13T10:56:27.474Z,9.55
2018-06-13T11:01:01.828Z,9.83
2018-06-13T11:05:36.167Z,9.03
2018-06-13T11:10:10.776Z,8.95
2018-06-13T11:14:45.083Z,9.98
2018-06-13T11:19:19.747Z,10.03
2018-06-13T11:23:54.150Z,9.40
2018-06-13T11:28:28.366Z,9.68
2018-06-13T11:33:02.642Z,10.65
2018-06-13T11:37:37.691Z,9.98
2018-06-13T11:42:11.997Z,12.63
2018-06-13T11:46:46.267Z,10.55
2018-06-13T11:51:21.082Z,10.90
2018-06-13T11:55:55.944Z,11.03
2018-06-13T12:00:31.083Z,11.12
2018-06-13T12:05:05.570Z,10.82
2018-06-13T12:09:39.899Z,11.73
2018-06-13T12:14:15.103Z,10.98
2018-06-13T12:18:49.436Z,12.00
2018-06-13T12:23:24.549Z,10.58
2018-06-13T12:27:58.778Z,10.45
2018-06-13T12:32:33.240Z,10.20
2018-06-13T12:37:07.511Z,10.93
2018-06-13T12:41:41.910Z,9.65
2018-06-13T12:46:16.665Z,10.28
2018-06-13T12:50:51.779Z,10.10
2018-06-13T12:55:26.062Z,10.05
2018-06-13T13:00:00.400Z,10.10
2018-06-13T13:04:34.920Z,9.90
2018-06-13T13:09:12.443Z,10.68
2018-06-13T13:13:47.493Z,9.38
2018-06-13T13:18:21.977Z,9.80
2018-06-13T13:22:56.250Z,8.93
2018-06-13T13:27:30.705Z,9.08
2018-06-13T13:32:06.007Z,9.05
2018-06-13T13:36:40.250Z,8.98
2018-06-13T13:41:14.466Z,8.95
2018-06-13T13:45:48.955Z,8.68
2018-06-13T13:50:23.901Z,9.23
2018-06-13T13:54:58.835Z,9.65
2018-06-13T13:59:33.654Z,10.15
2018-06-13T14:04:07.906Z,10.72
2018-06-13T14:08:42.171Z,9.48
2018-06-13T14:13:16.390Z,10.08
2018-06-13T14:17:50.729Z,9.90
2018-06-13T14:22:25.093Z,10.65
2018-06-13T14:26:59.257Z,10.78
2018-06-13T14:31:33.599Z,11.35
2018-06-13T14:36:07.862Z,10.58
2018-06-13T14:40:42.416Z,10.35
2018-06-13T14:45:16.930Z,10.05
2018-06-13T14:49:51.207Z,10.28
2018-06-13T14:54:25.431Z,10.80
2018-06-13T14:59:05.095Z,11.90
2018-06-13T15:03:40.254Z,10.80
2018-06-13T15:08:15.261Z,11.12
2018-06-13T15:12:49.686Z,12.70
2018-06-13T15:17:23.927Z,10.95
2018-06-13T15:21:58.210Z,11.85
2018-06-13T15:26:33.664Z,11.60
2018-06-13T15:31:07.959Z,11.55
2018-06-13T15:35:42.221Z,12.03
2018-06-13T15:40:16.542Z,12.07
2018-06-13T15:44:51.100Z,11.97
2018-06-13T15:49:25.450Z,12.90
2018-06-13T15:53:59.950Z,13.05
2018-06-13T15:58:34.317Z,13.85
2018-06-13T16:03:08.979Z,11.88
2018-06-13T16:07:43.312Z,11.03
2018-06-13T16:12:17.679Z,10.70
2018-06-13T16:16:51.927Z,10.90
2018-06-13T16:21:26.262Z,8.90
2018-06-13T16:26:00.478Z,9.20
2018-06-13T16:30:34.759Z,9.98
2018-06-13T16:35:09.043Z,9.20
2018-06-13T16:39:43.293Z,9.00
2018-06-13T16:44:17.806Z,9.58
2018-06-13T16:48:51.694Z,9.38
2018-06-13T16:53:52.891Z,11.12
2018-06-13T16:58:27.243Z,10.23
2018-06-13T17:03:01.503Z,10.30
2018-06-13T17:07:36.145Z,11.20
2018-06-13T17:12:10.470Z,11.70
2018-06-13T17:16:44.870Z,10.10
2018-06-13T17:21:19.225Z,9.55
2018-06-13T17:25:53.969Z,8.80
2018-06-13T17:30:28.359Z,9.45
2018-06-13T17:35:03.606Z,9.48
2018-06-13T17:39:37.891Z,10.95
2018-06-13T17:44:12.670Z,9.38
2018-06-13T17:48:47.121Z,9.70
2018-06-13T17:53:21.643Z,12.18
2018-06-13T17:57:56.212Z,9.88
2018-06-13T18:02:30.412Z,10.65
2018-06-13T18:07:05.007Z,11.55
2018-06-13T18:11:39.687Z,12.25
2018-06-13T18:16:14.580Z,10.85
2018-06-13T18:20:49.190Z,10.93
2018-06-13T18:25:23.594Z,13.32
2018-06-13T18:29:58.029Z,12.65
2018-06-13T18:34:32.305Z,10.95
2018-06-13T18:39:10.649Z,9.28
2018-06-13T18:43:45.283Z,9.35
2018-06-13T18:48:19.646Z,9.90
2018-06-13T18:52:54.294Z,9.75
2018-06-13T18:57:28.752Z,10.38
2018-06-13T19:02:03.104Z,9.90
2018-06-13T19:06:37.413Z,10.43
2018-06-13T19:11:12.053Z,9.63
2018-06-13T19:15:46.429Z,8.78
2018-06-13T19:20:20.381Z,9.05
2018-06-13T19:24:54.839Z,11.33
2018-06-13T19:29:29.774Z,9.98
2018-06-13T19:34:04.865Z,9.78
2018-06-13T19:38:39.591Z,10.43
2018-06-13T19:43:19.393Z,8.33
2018-06-13T19:47:59.259Z,11.10
2018-06-13T19:52:39.054Z,10.43
2018-06-13T19:57:13.407Z,10.25
2018-06-13T20:01:47.709Z,9.98
2018-06-13T20:06:22.287Z,10.18
2018-06-13T20:10:56.962Z,10.43
2018-06-13T20:15:36.990Z,9.15
2018-06-13T20:20:11.565Z,10.18
2018-06-13T20:24:51.596Z,12.82
2018-06-13T20:29:31.330Z,11.00
2018-06-13T20:34:06.325Z,11.15
2018-06-13T20:38:41.117Z,12.10
2018-06-13T20:43:15.627Z,11.75
2018-06-13T20:47:50.111Z,12.33
2018-06-13T20:52:24.845Z,10.88
2018-06-13T20:56:59.917Z,10.78
2018-06-13T21:01:34.479Z,10.68
2018-06-13T21:06:09.091Z,10.93
2018-06-13T21:10:43.388Z,10.45
2018-06-13T21:15:18.343Z,10.65
2018-06-13T21:19:52.878Z,11.05
2018-06-13T21:24:27.390Z,10.60
2018-06-13T21:29:01.762Z,11.33
2018-06-13T21:33:36.366Z,11.80
2018-06-13T21:38:10.934Z,10.82
2018-06-13T21:42:45.458Z,11.45
2018-06-13T21:47:19.947Z,10.28
2018-06-13T21:51:54.418Z,12.78
2018-06-13T21:56:28.496Z,13.68
2018-06-13T22:01:02.921Z,11.68
2018-06-13T22:05:37.250Z,13.85
2018-06-13T22:10:11.482Z,12.47
2018-06-13T22:14:46.138Z,11.48
2018-06-13T22:19:21.161Z,11.28
2018-06-13T22:23:55.691Z,11.28
2018-06-13T22:28:30.305Z,11.38
2018-06-13T22:33:04.825Z,10.68
2018-06-13T22:37:39.048Z,12.23
2018-06-13T22:42:13.430Z,13.03
2018-06-13T22:46:48.026Z,11.05
2018-06-13T22:51:22.515Z,12.13
2018-06-13T22:55:56.954Z,12.10
2018-06-13T23:00:42.350Z,11.20
2018-06-13T23:05:16.910Z,11.83
2018-06-13T23:09:51.661Z,13.43
2018-06-13T23:14:26.203Z,14.83
2018-06-13T23:19:00.409Z,12.98
2018-06-13T23:23:35.285Z,12.53
2018-06-13T23:28:09.893Z,13.48
2018-06-13T23:32:44.230Z,12.82
2018-06-13T23:37:18.610Z,12.53
2018-06-13T23:41:52.805Z,12.37
2018-06-13T23:46:27.338Z,13.05
2018-06-13T23:51:01.618Z,12.23
2018-06-13T23:55:35.986Z,11.75
